sensor_id;sensor_type;location;lat;lon;timestamp;temperature;humidity
13616;DHT22;6879;51.368;6.782;2022-08-27T00:00:14;18.20;99.90
13616;DHT22;6879;51.368;6.782;2022-08-27T00:02:46;18.20;99.90
13616;DHT22;6879;51.368;6.782;2022-08-27T00:05:16;18.10;99.90
13616;DHT22;6879;51.368;6.782;2022-08-27T00:07:47;18.20;99.90
13616;DHT22;6879;51.368;6.782;2022-08-27T00:10:23;18.20;99.90
13616;DHT22;6879;51.368;6.782;2022-08-27T00:12:53;18.10;99.90
13616;DHT22;6879;51.368;6.782;2022-08-27T00:15:23;18.10;99.90
13616;DHT22;6879;51.368;6.782;2022-08-27T00:17:53;18.10;99.90
13616;DHT22;6879;51.368;6.782;2022-08-27T00:20:24;18.00;99.90
13616;DHT22;6879;51.368;6.782;2022-08-27T00:22:52;18.00;99.90
13616;DHT22;6879;51.368;6.782;2022-08-27T00:25:22;18.10;99.90
13616;DHT22;6879;51.368;6.782;2022-08-27T00:27:51;18.10;99.90
13616;DHT22;6879;51.368;6.782;2022-08-27T00:30:21;18.00;99.90
13616;DHT22;6879;51.368;6.782;2022-08-27T00:32:50;18.00;99.90
13616;DHT22;6879;51.368;6.782;2022-08-27T00:35:20;18.00;99.90
13616;DHT22;6879;51.368;6.782;2022-08-27T00:37:48;18.10;99.90
13616;DHT22;6879;51.368;6.782;2022-08-27T00:40:19;18.20;99.90
13616;DHT22;6879;51.368;6.782;2022-08-27T00:42:48;18.20;99.90
13616;DHT22;6879;51.368;6.782;2022-08-27T00:45:20;18.20;99.90
13616;DHT22;6879;51.368;6.782;2022-08-27T00:47:52;18.10;99.90
13616;DHT22;6879;51.368;6.782;2022-08-27T00:50:29;18.00;99.90
13616;DHT22;6879;51.368;6.782;2022-08-27T00:53:02;18.10;99.90
13616;DHT22;6879;51.368;6.782;2022-08-27T00:55:33;18.10;99.90
13616;DHT22;6879;51.368;6.782;2022-08-27T00:58:07;18.00;99.90
13616;DHT22;6879;51.368;6.782;2022-08-27T01:00:37;18.10;99.90
13616;DHT22;6879;51.368;6.782;2022-08-27T01:03:06;18.00;99.90
13616;DHT22;6879;51.368;6.782;2022-08-27T01:05:37;18.00;99.90
13616;DHT22;6879;51.368;6.782;2022-08-27T01:08:09;18.00;99.90
13616;DHT22;6879;51.368;6.782;2022-08-27T01:10:40;18.00;99.90
13616;DHT22;6879;51.368;6.782;2022-08-27T01:13:11;18.00;99.90
13616;DHT22;6879;51.368;6.782;2022-08-27T01:15:40;18.10;99.90
13616;DHT22;6879;51.368;6.782;2022-08-27T01:18:10;18.20;99.90
13616;DHT22;6879;51.368;6.782;2022-08-27T01:20:49;18.30;99.90
13616;DHT22;6879;51.368;6.782;2022-08-27T01:23:23;18.30;99.90
13616;DHT22;6879;51.368;6.782;2022-08-27T01:25:56;18.40;99.90
13616;DHT22;6879;51.368;6.782;2022-08-27T01:28:27;18.50;99.90
13616;DHT22;6879;51.368;6.782;2022-08-27T01:31:05;18.50;99.90
13616;DHT22;6879;51.368;6.782;2022-08-27T01:33:35;18.40;99.90
13616;DHT22;6879;51.368;6.782;2022-08-27T01:36:05;18.40;99.90
13616;DHT22;6879;51.368;6.782;2022-08-27T01:38:34;18.40;99.90
13616;DHT22;6879;51.368;6.782;2022-08-27T01:41:04;18.30;99.90
13616;DHT22;6879;51.368;6.782;2022-08-27T01:43:33;18.30;99.90
13616;DHT22;6879;51.368;6.782;2022-08-27T01:46:02;18.30;99.90
13616;DHT22;6879;51.368;6.782;2022-08-27T01:48:31;18.40;99.90
13616;DHT22;6879;51.368;6.782;2022-08-27T01:51:01;18.30;99.90
13616;DHT22;6879;51.368;6.782;2022-08-27T01:53:29;18.30;99.90
13616;DHT22;6879;51.368;6.782;2022-08-27T01:55:59;18.40;99.90
13616;DHT22;6879;51.368;6.782;2022-08-27T01:58:30;18.40;99.90
13616;DHT22;6879;51.368;6.782;2022-08-27T02:01:03;18.40;99.90
13616;DHT22;6879;51.368;6.782;2022-08-27T02:03:32;18.40;99.90
13616;DHT22;6879;51.368;6.782;2022-08-27T02:06:05;18.40;99.90
13616;DHT22;6879;51.368;6.782;2022-08-27T02:08:35;18.40;99.90
13616;DHT22;6879;51.368;6.782;2022-08-27T02:11:04;18.40;99.90
13616;DHT22;6879;51.368;6.782;2022-08-27T02:13:36;18.50;99.90
13616;DHT22;6879;51.368;6.782;2022-08-27T02:16:05;18.60;99.90
13616;DHT22;6879;51.368;6.782;2022-08-27T02:18:34;18.60;99.90
13616;DHT22;6879;51.368;6.782;2022-08-27T02:21:07;18.60;99.90
13616;DHT22;6879;51.368;6.782;2022-08-27T02:23:36;18.60;99.90
13616;DHT22;6879;51.368;6.782;2022-08-27T02:26:06;18.50;99.90
13616;DHT22;6879;51.368;6.782;2022-08-27T02:28:36;18.50;99.90
13616;DHT22;6879;51.368;6.782;2022-08-27T02:31:04;18.60;99.90
13616;DHT22;6879;51.368;6.782;2022-08-27T02:33:33;18.60;99.90
13616;DHT22;6879;51.368;6.782;2022-08-27T02:36:02;18.60;99.90
13616;DHT22;6879;51.368;6.782;2022-08-27T02:38:32;18.50;99.90
13616;DHT22;6879;51.368;6.782;2022-08-27T02:41:01;18.50;99.90
13616;DHT22;6879;51.368;6.782;2022-08-27T02:43:30;18.40;99.90
13616;DHT22;6879;51.368;6.782;2022-08-27T02:46:03;18.30;99.90
13616;DHT22;6879;51.368;6.782;2022-08-27T02:48:35;18.30;99.90
13616;DHT22;6879;51.368;6.782;2022-08-27T02:51:04;18.30;99.90
13616;DHT22;6879;51.368;6.782;2022-08-27T02:53:35;18.20;99.90
13616;DHT22;6879;51.368;6.782;2022-08-27T02:56:06;18.20;99.90
13616;DHT22;6879;51.368;6.782;2022-08-27T02:58:36;18.10;99.90
13616;DHT22;6879;51.368;6.782;2022-08-27T03:01:06;18.10;99.90
13616;DHT22;6879;51.368;6.782;2022-08-27T03:03:39;18.10;99.90
13616;DHT22;6879;51.368;6.782;2022-08-27T03:06:09;18.00;99.90
13616;DHT22;6879;51.368;6.782;2022-08-27T03:08:38;18.00;99.90
13616;DHT22;6879;51.368;6.782;2022-08-27T03:11:27;18.10;99.90
13616;DHT22;6879;51.368;6.782;2022-08-27T03:13:57;18.20;99.90
13616;DHT22;6879;51.368;6.782;2022-08-27T03:16:28;18.20;99.90
13616;DHT22;6879;51.368;6.782;2022-08-27T03:18:56;18.20;99.90
13616;DHT22;6879;51.368;6.782;2022-08-27T03:21:24;18.10;99.90
13616;DHT22;6879;51.368;6.782;2022-08-27T03:23:53;18.10;99.90
13616;DHT22;6879;51.368;6.782;2022-08-27T03:26:23;18.00;99.90
13616;DHT22;6879;51.368;6.782;2022-08-27T03:28:52;18.00;99.90
13616;DHT22;6879;51.368;6.782;2022-08-27T03:31:23;17.90;99.90
13616;DHT22;6879;51.368;6.782;2022-08-27T03:33:57;18.00;99.90
13616;DHT22;6879;51.368;6.782;2022-08-27T03:36:29;18.10;99.90
13616;DHT22;6879;51.368;6.782;2022-08-27T03:38:57;18.10;99.90
13616;DHT22;6879;51.368;6.782;2022-08-27T03:41:26;18.20;99.90
13616;DHT22;6879;51.368;6.782;2022-08-27T03:44:14;18.20;99.90
13616;DHT22;6879;51.368;6.782;2022-08-27T03:46:48;18.30;99.90
13616;DHT22;6879;51.368;6.782;2022-08-27T03:49:18;18.30;99.90
13616;DHT22;6879;51.368;6.782;2022-08-27T03:51:48;18.40;99.90
13616;DHT22;6879;51.368;6.782;2022-08-27T03:54:18;18.40;99.90
13616;DHT22;6879;51.368;6.782;2022-08-27T03:56:46;18.40;99.90
13616;DHT22;6879;51.368;6.782;2022-08-27T03:59:15;18.40;99.90
13616;DHT22;6879;51.368;6.782;2022-08-27T04:01:44;18.30;99.90
13616;DHT22;6879;51.368;6.782;2022-08-27T04:04:12;18.50;99.90
13616;DHT22;6879;51.368;6.782;2022-08-27T04:06:43;18.50;99.90
13616;DHT22;6879;51.368;6.782;2022-08-27T04:09:12;18.40;99.90
13616;DHT22;6879;51.368;6.782;2022-08-27T04:11:40;18.40;99.90
13616;DHT22;6879;51.368;6.782;2022-08-27T04:14:09;18.40;99.90
13616;DHT22;6879;51.368;6.782;2022-08-27T04:16:54;18.40;99.90
13616;DHT22;6879;51.368;6.782;2022-08-27T04:19:23;18.40;99.90
13616;DHT22;6879;51.368;6.782;2022-08-27T04:22:00;18.40;99.90
13616;DHT22;6879;51.368;6.782;2022-08-27T04:24:30;18.40;99.50
13616;DHT22;6879;51.368;6.782;2022-08-27T04:27:00;18.30;99.90
13616;DHT22;6879;51.368;6.782;2022-08-27T04:29:28;18.30;99.60
13616;DHT22;6879;51.368;6.782;2022-08-27T04:31:58;18.30;99.80
13616;DHT22;6879;51.368;6.782;2022-08-27T04:34:27;18.30;99.80
13616;DHT22;6879;51.368;6.782;2022-08-27T04:36:56;18.40;99.30
13616;DHT22;6879;51.368;6.782;2022-08-27T04:39:27;18.40;99.20
13616;DHT22;6879;51.368;6.782;2022-08-27T04:41:58;18.40;99.10
13616;DHT22;6879;51.368;6.782;2022-08-27T04:44:29;18.30;99.30
13616;DHT22;6879;51.368;6.782;2022-08-27T04:47:00;18.30;99.30
13616;DHT22;6879;51.368;6.782;2022-08-27T04:49:30;18.30;99.30
13616;DHT22;6879;51.368;6.782;2022-08-27T04:52:00;18.30;99.50
13616;DHT22;6879;51.368;6.782;2022-08-27T04:54:30;18.40;98.90
13616;DHT22;6879;51.368;6.782;2022-08-27T04:56:59;18.40;98.70
13616;DHT22;6879;51.368;6.782;2022-08-27T04:59:29;18.40;98.40
13616;DHT22;6879;51.368;6.782;2022-08-27T05:01:58;18.30;98.60
13616;DHT22;6879;51.368;6.782;2022-08-27T05:04:31;18.10;99.10
13616;DHT22;6879;51.368;6.782;2022-08-27T05:07:01;18.20;99.20
13616;DHT22;6879;51.368;6.782;2022-08-27T05:09:31;18.20;99.00
13616;DHT22;6879;51.368;6.782;2022-08-27T05:12:00;18.20;99.10
13616;DHT22;6879;51.368;6.782;2022-08-27T05:14:29;18.20;99.10
13616;DHT22;6879;51.368;6.782;2022-08-27T05:16:59;18.10;99.00
13616;DHT22;6879;51.368;6.782;2022-08-27T05:19:28;18.10;99.00
13616;DHT22;6879;51.368;6.782;2022-08-27T05:21:57;18.00;99.40
13616;DHT22;6879;51.368;6.782;2022-08-27T05:24:25;18.00;99.30
13616;DHT22;6879;51.368;6.782;2022-08-27T05:26:55;18.10;99.20
13616;DHT22;6879;51.368;6.782;2022-08-27T05:29:24;18.10;98.90
13616;DHT22;6879;51.368;6.782;2022-08-27T05:31:52;18.10;99.00
13616;DHT22;6879;51.368;6.782;2022-08-27T05:34:21;18.20;99.00
13616;DHT22;6879;51.368;6.782;2022-08-27T05:36:53;18.20;99.10
13616;DHT22;6879;51.368;6.782;2022-08-27T05:39:22;18.30;98.60
13616;DHT22;6879;51.368;6.782;2022-08-27T05:41:50;18.30;98.60
13616;DHT22;6879;51.368;6.782;2022-08-27T05:44:21;18.20;98.40
13616;DHT22;6879;51.368;6.782;2022-08-27T05:47:07;18.10;99.00
13616;DHT22;6879;51.368;6.782;2022-08-27T05:49:36;18.00;99.10
13616;DHT22;6879;51.368;6.782;2022-08-27T05:52:08;18.10;99.20
13616;DHT22;6879;51.368;6.782;2022-08-27T05:54:37;18.10;99.00
13616;DHT22;6879;51.368;6.782;2022-08-27T05:57:06;18.20;99.10
13616;DHT22;6879;51.368;6.782;2022-08-27T05:59:36;18.30;98.90
13616;DHT22;6879;51.368;6.782;2022-08-27T06:02:21;18.40;98.50
13616;DHT22;6879;51.368;6.782;2022-08-27T06:04:50;18.50;98.00
13616;DHT22;6879;51.368;6.782;2022-08-27T06:07:19;18.60;97.90
13616;DHT22;6879;51.368;6.782;2022-08-27T06:09:48;18.60;97.70
13616;DHT22;6879;51.368;6.782;2022-08-27T06:12:16;18.60;97.50
13616;DHT22;6879;51.368;6.782;2022-08-27T06:14:55;18.60;97.60
13616;DHT22;6879;51.368;6.782;2022-08-27T06:17:24;18.60;97.70
13616;DHT22;6879;51.368;6.782;2022-08-27T06:19:52;18.70;97.50
13616;DHT22;6879;51.368;6.782;2022-08-27T06:22:21;18.70;97.20
13616;DHT22;6879;51.368;6.782;2022-08-27T06:24:50;18.70;97.30
13616;DHT22;6879;51.368;6.782;2022-08-27T06:27:19;18.70;97.20
13616;DHT22;6879;51.368;6.782;2022-08-27T06:29:47;18.80;97.00
13616;DHT22;6879;51.368;6.782;2022-08-27T06:32:17;18.90;96.70
13616;DHT22;6879;51.368;6.782;2022-08-27T06:34:46;18.90;96.70
13616;DHT22;6879;51.368;6.782;2022-08-27T06:37:15;19.10;96.40
13616;DHT22;6879;51.368;6.782;2022-08-27T06:39:44;19.10;96.00
13616;DHT22;6879;51.368;6.782;2022-08-27T06:42:12;19.20;95.80
13616;DHT22;6879;51.368;6.782;2022-08-27T06:44:41;19.20;96.00
13616;DHT22;6879;51.368;6.782;2022-08-27T06:47:09;19.20;96.10
13616;DHT22;6879;51.368;6.782;2022-08-27T06:49:40;19.30;96.00
13616;DHT22;6879;51.368;6.782;2022-08-27T06:52:12;19.40;95.50
13616;DHT22;6879;51.368;6.782;2022-08-27T06:54:41;19.50;95.10
13616;DHT22;6879;51.368;6.782;2022-08-27T06:57:11;19.60;94.70
13616;DHT22;6879;51.368;6.782;2022-08-27T06:59:39;19.70;94.50
13616;DHT22;6879;51.368;6.782;2022-08-27T07:02:08;19.80;94.30
13616;DHT22;6879;51.368;6.782;2022-08-27T07:04:36;19.90;94.00
13616;DHT22;6879;51.368;6.782;2022-08-27T07:07:09;20.10;93.70
13616;DHT22;6879;51.368;6.782;2022-08-27T07:09:39;20.10;93.50
13616;DHT22;6879;51.368;6.782;2022-08-27T07:12:08;20.20;92.60
13616;DHT22;6879;51.368;6.782;2022-08-27T07:14:36;20.30;92.40
13616;DHT22;6879;51.368;6.782;2022-08-27T07:17:07;20.40;92.20
13616;DHT22;6879;51.368;6.782;2022-08-27T07:19:41;20.20;92.40
13616;DHT22;6879;51.368;6.782;2022-08-27T07:22:11;20.40;92.50
13616;DHT22;6879;51.368;6.782;2022-08-27T07:24:40;20.40;92.40
13616;DHT22;6879;51.368;6.782;2022-08-27T07:27:09;20.50;92.80
13616;DHT22;6879;51.368;6.782;2022-08-27T07:29:38;20.60;92.10
13616;DHT22;6879;51.368;6.782;2022-08-27T07:32:06;20.70;91.70
13616;DHT22;6879;51.368;6.782;2022-08-27T07:34:35;20.80;90.80
13616;DHT22;6879;51.368;6.782;2022-08-27T07:37:03;20.90;91.20
13616;DHT22;6879;51.368;6.782;2022-08-27T07:39:33;20.90;90.60
13616;DHT22;6879;51.368;6.782;2022-08-27T07:42:02;20.90;90.60
13616;DHT22;6879;51.368;6.782;2022-08-27T07:44:48;21.00;90.60
13616;DHT22;6879;51.368;6.782;2022-08-27T07:47:23;21.00;90.20
13616;DHT22;6879;51.368;6.782;2022-08-27T07:49:52;21.00;90.70
13616;DHT22;6879;51.368;6.782;2022-08-27T07:52:20;21.10;90.10
13616;DHT22;6879;51.368;6.782;2022-08-27T07:54:56;21.00;90.30
13616;DHT22;6879;51.368;6.782;2022-08-27T07:57:25;21.10;90.20
13616;DHT22;6879;51.368;6.782;2022-08-27T07:59:54;21.10;90.20
13616;DHT22;6879;51.368;6.782;2022-08-27T08:02:23;20.90;90.10
13616;DHT22;6879;51.368;6.782;2022-08-27T08:04:54;20.90;90.70
13616;DHT22;6879;51.368;6.782;2022-08-27T08:07:22;21.20;90.20
13616;DHT22;6879;51.368;6.782;2022-08-27T08:09:53;21.40;89.60
13616;DHT22;6879;51.368;6.782;2022-08-27T08:12:26;21.50;88.80
13616;DHT22;6879;51.368;6.782;2022-08-27T08:14:55;21.60;88.40
13616;DHT22;6879;51.368;6.782;2022-08-27T08:17:26;21.50;88.40
13616;DHT22;6879;51.368;6.782;2022-08-27T08:19:55;21.40;88.60
13616;DHT22;6879;51.368;6.782;2022-08-27T08:22:44;21.20;89.30
13616;DHT22;6879;51.368;6.782;2022-08-27T08:25:13;21.10;89.60
13616;DHT22;6879;51.368;6.782;2022-08-27T08:27:43;21.30;89.20
13616;DHT22;6879;51.368;6.782;2022-08-27T08:30:14;21.40;88.90
13616;DHT22;6879;51.368;6.782;2022-08-27T08:32:43;21.50;88.70
13616;DHT22;6879;51.368;6.782;2022-08-27T08:35:12;21.80;88.50
13616;DHT22;6879;51.368;6.782;2022-08-27T08:37:41;21.80;87.60
13616;DHT22;6879;51.368;6.782;2022-08-27T08:40:22;21.60;87.60
13616;DHT22;6879;51.368;6.782;2022-08-27T08:42:54;21.60;87.90
13616;DHT22;6879;51.368;6.782;2022-08-27T08:45:33;21.70;88.10
13616;DHT22;6879;51.368;6.782;2022-08-27T08:48:06;22.10;86.80
13616;DHT22;6879;51.368;6.782;2022-08-27T08:50:41;21.90;87.00
13616;DHT22;6879;51.368;6.782;2022-08-27T08:53:19;22.00;87.30
13616;DHT22;6879;51.368;6.782;2022-08-27T08:55:52;22.10;86.40
13616;DHT22;6879;51.368;6.782;2022-08-27T08:58:31;22.40;86.70
13616;DHT22;6879;51.368;6.782;2022-08-27T09:01:03;22.80;85.10
13616;DHT22;6879;51.368;6.782;2022-08-27T09:03:34;22.90;84.90
13616;DHT22;6879;51.368;6.782;2022-08-27T09:06:06;22.90;84.60
13616;DHT22;6879;51.368;6.782;2022-08-27T09:08:37;22.80;84.40
13616;DHT22;6879;51.368;6.782;2022-08-27T09:11:17;22.70;85.50
13616;DHT22;6879;51.368;6.782;2022-08-27T09:13:52;23.00;84.80
13616;DHT22;6879;51.368;6.782;2022-08-27T09:16:23;23.30;83.90
13616;DHT22;6879;51.368;6.782;2022-08-27T09:18:52;23.40;83.10
13616;DHT22;6879;51.368;6.782;2022-08-27T09:21:32;23.20;83.00
13616;DHT22;6879;51.368;6.782;2022-08-27T09:24:07;23.10;83.70
13616;DHT22;6879;51.368;6.782;2022-08-27T09:26:42;23.20;83.20
13616;DHT22;6879;51.368;6.782;2022-08-27T09:29:15;23.00;83.40
13616;DHT22;6879;51.368;6.782;2022-08-27T09:31:52;22.10;84.90
13616;DHT22;6879;51.368;6.782;2022-08-27T09:34:22;22.40;85.90
13616;DHT22;6879;51.368;6.782;2022-08-27T09:36:58;22.90;84.20
13616;DHT22;6879;51.368;6.782;2022-08-27T09:39:32;23.30;83.50
13616;DHT22;6879;51.368;6.782;2022-08-27T09:42:02;23.20;83.10
13616;DHT22;6879;51.368;6.782;2022-08-27T09:44:44;23.10;83.00
13616;DHT22;6879;51.368;6.782;2022-08-27T09:47:19;23.00;83.30
13616;DHT22;6879;51.368;6.782;2022-08-27T09:49:58;23.20;82.70
13616;DHT22;6879;51.368;6.782;2022-08-27T09:52:35;23.40;82.40
13616;DHT22;6879;51.368;6.782;2022-08-27T09:55:05;23.50;81.30
13616;DHT22;6879;51.368;6.782;2022-08-27T09:57:38;23.20;82.70
13616;DHT22;6879;51.368;6.782;2022-08-27T10:00:15;23.40;81.70
13616;DHT22;6879;51.368;6.782;2022-08-27T10:02:51;23.60;81.60
13616;DHT22;6879;51.368;6.782;2022-08-27T10:05:27;23.80;81.10
13616;DHT22;6879;51.368;6.782;2022-08-27T10:07:59;23.40;81.00
13616;DHT22;6879;51.368;6.782;2022-08-27T10:10:37;22.60;83.00
13616;DHT22;6879;51.368;6.782;2022-08-27T10:13:13;22.40;83.70
13616;DHT22;6879;51.368;6.782;2022-08-27T10:16:06;22.50;83.50
13616;DHT22;6879;51.368;6.782;2022-08-27T10:18:42;22.80;82.90
13616;DHT22;6879;51.368;6.782;2022-08-27T10:21:18;23.10;82.30
13616;DHT22;6879;51.368;6.782;2022-08-27T10:24:01;23.40;81.30
13616;DHT22;6879;51.368;6.782;2022-08-27T10:26:39;23.60;80.90
13616;DHT22;6879;51.368;6.782;2022-08-27T10:29:19;23.60;80.40
13616;DHT22;6879;51.368;6.782;2022-08-27T10:32:01;23.40;81.00
13616;DHT22;6879;51.368;6.782;2022-08-27T10:34:38;22.90;82.00
13616;DHT22;6879;51.368;6.782;2022-08-27T10:37:19;23.20;81.50
13616;DHT22;6879;51.368;6.782;2022-08-27T10:40:02;23.70;80.80
13616;DHT22;6879;51.368;6.782;2022-08-27T10:42:36;24.00;79.90
13616;DHT22;6879;51.368;6.782;2022-08-27T10:45:15;23.70;79.50
13616;DHT22;6879;51.368;6.782;2022-08-27T10:48:08;23.80;79.70
13616;DHT22;6879;51.368;6.782;2022-08-27T10:50:43;24.10;79.70
13616;DHT22;6879;51.368;6.782;2022-08-27T10:53:21;24.00;79.70
13616;DHT22;6879;51.368;6.782;2022-08-27T10:56:04;24.00;79.90
13616;DHT22;6879;51.368;6.782;2022-08-27T10:58:40;24.20;79.00
13616;DHT22;6879;51.368;6.782;2022-08-27T11:01:21;24.50;78.80
13616;DHT22;6879;51.368;6.782;2022-08-27T11:04:00;24.80;78.30
13616;DHT22;6879;51.368;6.782;2022-08-27T11:06:34;24.80;77.40
13616;DHT22;6879;51.368;6.782;2022-08-27T11:09:09;24.50;77.60
13616;DHT22;6879;51.368;6.782;2022-08-27T11:11:41;24.70;77.70
13616;DHT22;6879;51.368;6.782;2022-08-27T11:14:33;24.90;77.70
13616;DHT22;6879;51.368;6.782;2022-08-27T11:17:07;24.60;78.10
13616;DHT22;6879;51.368;6.782;2022-08-27T11:19:46;24.70;78.10
13616;DHT22;6879;51.368;6.782;2022-08-27T11:22:24;25.00;77.70
13616;DHT22;6879;51.368;6.782;2022-08-27T11:25:04;25.40;76.80
13616;DHT22;6879;51.368;6.782;2022-08-27T11:27:35;25.70;76.20
13616;DHT22;6879;51.368;6.782;2022-08-27T11:30:07;25.50;75.60
13616;DHT22;6879;51.368;6.782;2022-08-27T11:32:46;25.10;76.30
13616;DHT22;6879;51.368;6.782;2022-08-27T11:35:22;25.00;77.00
13616;DHT22;6879;51.368;6.782;2022-08-27T11:41:01;25.70;75.60
13616;DHT22;6879;51.368;6.782;2022-08-27T11:43:34;26.10;74.30
13616;DHT22;6879;51.368;6.782;2022-08-27T11:46:07;26.10;74.50
13616;DHT22;6879;51.368;6.782;2022-08-27T11:48:40;26.20;74.20
13616;DHT22;6879;51.368;6.782;2022-08-27T11:53:55;25.60;75.00
13616;DHT22;6879;51.368;6.782;2022-08-27T11:56:36;25.40;75.00
13616;DHT22;6879;51.368;6.782;2022-08-27T11:59:19;25.50;75.50
13616;DHT22;6879;51.368;6.782;2022-08-27T12:01:49;25.80;74.80
13616;DHT22;6879;51.368;6.782;2022-08-27T12:04:34;25.80;74.80
13616;DHT22;6879;51.368;6.782;2022-08-27T12:07:07;25.80;74.00
13616;DHT22;6879;51.368;6.782;2022-08-27T12:13:03;26.00;74.00
13616;DHT22;6879;51.368;6.782;2022-08-27T12:15:47;25.60;74.60
13616;DHT22;6879;51.368;6.782;2022-08-27T12:21:18;25.30;75.50
13616;DHT22;6879;51.368;6.782;2022-08-27T12:24:09;25.50;74.80
13616;DHT22;6879;51.368;6.782;2022-08-27T12:26:54;25.70;74.80
13616;DHT22;6879;51.368;6.782;2022-08-27T12:29:27;25.90;74.30
13616;DHT22;6879;51.368;6.782;2022-08-27T12:32:16;26.00;73.40
13616;DHT22;6879;51.368;6.782;2022-08-27T12:34:51;25.60;74.00
13616;DHT22;6879;51.368;6.782;2022-08-27T12:37:28;25.30;75.30
13616;DHT22;6879;51.368;6.782;2022-08-27T12:40:02;25.60;74.90
13616;DHT22;6879;51.368;6.782;2022-08-27T12:42:35;25.40;74.80
13616;DHT22;6879;51.368;6.782;2022-08-27T12:45:04;25.40;75.20
13616;DHT22;6879;51.368;6.782;2022-08-27T12:47:38;25.40;75.00
13616;DHT22;6879;51.368;6.782;2022-08-27T12:50:23;25.60;74.80
13616;DHT22;6879;51.368;6.782;2022-08-27T12:53:11;25.20;75.00
13616;DHT22;6879;51.368;6.782;2022-08-27T12:55:53;24.90;75.70
13616;DHT22;6879;51.368;6.782;2022-08-27T12:58:33;24.60;76.10
13616;DHT22;6879;51.368;6.782;2022-08-27T13:01:22;24.70;75.90
13616;DHT22;6879;51.368;6.782;2022-08-27T13:04:01;24.50;76.50
13616;DHT22;6879;51.368;6.782;2022-08-27T13:06:35;24.70;76.60
13616;DHT22;6879;51.368;6.782;2022-08-27T13:09:28;24.80;76.30
13616;DHT22;6879;51.368;6.782;2022-08-27T13:12:05;24.50;76.60
13616;DHT22;6879;51.368;6.782;2022-08-27T13:14:39;24.60;76.40
13616;DHT22;6879;51.368;6.782;2022-08-27T13:17:10;24.60;76.20
13616;DHT22;6879;51.368;6.782;2022-08-27T13:19:46;24.60;76.50
13616;DHT22;6879;51.368;6.782;2022-08-27T13:22:35;24.80;75.90
13616;DHT22;6879;51.368;6.782;2022-08-27T13:25:22;24.90;76.10
13616;DHT22;6879;51.368;6.782;2022-08-27T13:28:01;24.80;75.60
13616;DHT22;6879;51.368;6.782;2022-08-27T13:30:36;24.20;76.70
13616;DHT22;6879;51.368;6.782;2022-08-27T13:33:08;24.00;77.50
13616;DHT22;6879;51.368;6.782;2022-08-27T13:35:40;23.90;77.70
13616;DHT22;6879;51.368;6.782;2022-08-27T13:38:09;24.20;77.90
13616;DHT22;6879;51.368;6.782;2022-08-27T13:40:52;24.60;77.80
13616;DHT22;6879;51.368;6.782;2022-08-27T13:43:28;24.80;76.60
13616;DHT22;6879;51.368;6.782;2022-08-27T13:46:01;24.90;76.70
13616;DHT22;6879;51.368;6.782;2022-08-27T13:48:31;24.90;76.60
13616;DHT22;6879;51.368;6.782;2022-08-27T13:51:01;24.90;75.70
13616;DHT22;6879;51.368;6.782;2022-08-27T13:53:31;24.60;76.00
13616;DHT22;6879;51.368;6.782;2022-08-27T13:56:26;24.30;77.20
13616;DHT22;6879;51.368;6.782;2022-08-27T13:59:06;24.40;76.50
13616;DHT22;6879;51.368;6.782;2022-08-27T14:01:41;24.50;77.00
13616;DHT22;6879;51.368;6.782;2022-08-27T14:04:20;24.70;76.70
13616;DHT22;6879;51.368;6.782;2022-08-27T14:06:49;24.70;77.20
13616;DHT22;6879;51.368;6.782;2022-08-27T14:09:22;24.50;77.40
13616;DHT22;6879;51.368;6.782;2022-08-27T14:12:01;24.50;77.40
13616;DHT22;6879;51.368;6.782;2022-08-27T14:14:35;24.50;78.10
13616;DHT22;6879;51.368;6.782;2022-08-27T14:17:06;24.60;77.20
13616;DHT22;6879;51.368;6.782;2022-08-27T14:19:46;24.50;77.00
13616;DHT22;6879;51.368;6.782;2022-08-27T14:22:35;24.50;77.00
13616;DHT22;6879;51.368;6.782;2022-08-27T14:25:05;24.60;77.20
13616;DHT22;6879;51.368;6.782;2022-08-27T14:27:36;24.70;77.00
13616;DHT22;6879;51.368;6.782;2022-08-27T14:30:11;24.70;76.80
13616;DHT22;6879;51.368;6.782;2022-08-27T14:32:40;24.70;76.80
13616;DHT22;6879;51.368;6.782;2022-08-27T14:35:13;24.70;76.50
13616;DHT22;6879;51.368;6.782;2022-08-27T14:37:51;24.70;76.40
13616;DHT22;6879;51.368;6.782;2022-08-27T14:40:20;24.60;76.20
13616;DHT22;6879;51.368;6.782;2022-08-27T14:42:49;24.70;76.50
13616;DHT22;6879;51.368;6.782;2022-08-27T14:45:20;24.60;76.70
13616;DHT22;6879;51.368;6.782;2022-08-27T14:47:50;24.60;76.50
13616;DHT22;6879;51.368;6.782;2022-08-27T14:50:25;24.60;76.30
13616;DHT22;6879;51.368;6.782;2022-08-27T14:52:54;24.60;75.50
13616;DHT22;6879;51.368;6.782;2022-08-27T14:55:23;24.70;75.60
13616;DHT22;6879;51.368;6.782;2022-08-27T14:57:51;24.70;75.70
13616;DHT22;6879;51.368;6.782;2022-08-27T15:00:22;24.90;75.60
13616;DHT22;6879;51.368;6.782;2022-08-27T15:02:51;25.10;75.60
13616;DHT22;6879;51.368;6.782;2022-08-27T15:05:23;25.20;75.40
13616;DHT22;6879;51.368;6.782;2022-08-27T15:07:53;25.00;75.30
13616;DHT22;6879;51.368;6.782;2022-08-27T15:10:24;24.90;75.30
13616;DHT22;6879;51.368;6.782;2022-08-27T15:12:53;24.70;75.70
13616;DHT22;6879;51.368;6.782;2022-08-27T15:15:24;24.80;75.90
13616;DHT22;6879;51.368;6.782;2022-08-27T15:17:53;24.90;75.70
13616;DHT22;6879;51.368;6.782;2022-08-27T15:20:22;25.00;75.30
13616;DHT22;6879;51.368;6.782;2022-08-27T15:22:51;25.30;75.00
13616;DHT22;6879;51.368;6.782;2022-08-27T15:25:21;25.30;75.10
13616;DHT22;6879;51.368;6.782;2022-08-27T15:27:50;25.40;74.60
13616;DHT22;6879;51.368;6.782;2022-08-27T15:30:24;25.50;74.00
13616;DHT22;6879;51.368;6.782;2022-08-27T15:32:54;25.30;74.40
13616;DHT22;6879;51.368;6.782;2022-08-27T15:35:27;25.20;74.00
13616;DHT22;6879;51.368;6.782;2022-08-27T15:37:57;25.00;74.50
13616;DHT22;6879;51.368;6.782;2022-08-27T15:40:28;24.90;74.80
13616;DHT22;6879;51.368;6.782;2022-08-27T15:43:01;24.80;75.00
13616;DHT22;6879;51.368;6.782;2022-08-27T15:45:32;24.80;74.90
13616;DHT22;6879;51.368;6.782;2022-08-27T15:48:02;24.70;75.20
13616;DHT22;6879;51.368;6.782;2022-08-27T15:50:31;24.70;75.40
13616;DHT22;6879;51.368;6.782;2022-08-27T15:53:03;24.60;75.70
13616;DHT22;6879;51.368;6.782;2022-08-27T15:55:35;24.50;75.50
13616;DHT22;6879;51.368;6.782;2022-08-27T15:58:06;24.50;75.50
13616;DHT22;6879;51.368;6.782;2022-08-27T16:00:38;24.30;76.10
13616;DHT22;6879;51.368;6.782;2022-08-27T16:03:10;24.10;76.60
13616;DHT22;6879;51.368;6.782;2022-08-27T16:05:43;24.00;77.00
13616;DHT22;6879;51.368;6.782;2022-08-27T16:08:13;24.00;77.40
13616;DHT22;6879;51.368;6.782;2022-08-27T16:10:43;24.00;77.40
13616;DHT22;6879;51.368;6.782;2022-08-27T16:13:12;24.00;77.10
13616;DHT22;6879;51.368;6.782;2022-08-27T16:15:43;23.90;77.50
13616;DHT22;6879;51.368;6.782;2022-08-27T16:18:13;23.80;77.60
13616;DHT22;6879;51.368;6.782;2022-08-27T16:20:42;23.60;77.20
13616;DHT22;6879;51.368;6.782;2022-08-27T16:23:11;23.40;77.90
13616;DHT22;6879;51.368;6.782;2022-08-27T16:25:40;23.30;78.20
13616;DHT22;6879;51.368;6.782;2022-08-27T16:28:10;23.20;78.20
13616;DHT22;6879;51.368;6.782;2022-08-27T16:30:40;23.10;78.30